Impacts TAF Board INFO
FOR SITUATIONAL AWARENESS. NOT TO BE USED FOR FLIGHT PLANNING PURPOSES.
IDs:

KASD - Slidell Arpt, LA, US

Issued at 1329 UTC 23 Jun 2018
Updated at 1528 UTC 23 Jun 2018
Potential Impact None Slight Moderate High
Time1453Z 23/16Z 23/17Z 23/18Z 23/19Z 23/20Z 23/21Z 23/22Z 23/23Z 24/00Z 24/01Z 24/02Z 24/03Z 24/04Z>>
Type OBS PRVL PRVL PRVL PRVL PRVL PRVL PRVL PRVL PRVL PRVL PRVL PRVL PRVL
VIS 10 >6 >6 >6 >6 >6 >6 >6 >6 >6 >6 >6 >6 >6
CIG 33 45 45 45 45 45 45 45 -- -- -- -- -- --
Cover BKN BKN BKN BKN BKN BKN BKN BKN SCT SCT SCT SCT FEW FEW
FltCat VFR VFR VFR VFR VFR VFR VFR VFR VFR VFR VFR VFR VFR VFR
WX -- -- -- -- -- -- -- -- -- -- -- -- -- --
WDir 240 220 220 220 220 220 220 220 200 200 200 200 180 180
WSpd 8 8 8 8 8 8 8 8 6 6 6 6 3 3
WGst -- -- -- -- -- -- -- -- -- -- -- -- -- --

Raw TAF
KASD 231329Z 2313/2412 24007KT P6SM FEW016 BKN021 OVC030
  FM231500 22008KT P6SM SCT025 BKN045
  FM232300 20006KT P6SM FEW045 SCT250
  FM240300 18003KT P6SM FEW250


Raw METAR
KASD 231453Z AUTO 24008KT 10SM SCT024 BKN033 29/23 A2997 RMK AO2 SLP148 T02940233 53012 TSNO
KASD 231416Z AUTO 23008KT 10SM SCT022 SCT028 BKN034 29/24 A2996 RMK AO2 T02940239 TSNO
KASD 231407Z AUTO 23007KT 10SM SCT022 BKN028 BKN034 29/24 A2996 RMK AO2 T02890239 TSNO
KASD 231353Z AUTO 22008KT 200V260 10SM SCT021 SCT028 BKN035 29/24 A2995 RMK AO2 SLP143 T02890239 TSNO
KASD 231253Z AUTO VRB04KT 10SM FEW016 BKN021 OVC032 28/24 A2994 RMK AO2 SLP139 T02830244 TSNO

METAR Board
Radar Display
Forecast Discussion

FOR SITUATIONAL AWARENESS. NOT TO BE USED FOR FLIGHT PLANNING PURPOSES.